sensor_id;sensor_type;location;lat;lon;timestamp;pressure;altitude;pressure_sealevel;temperature;humidity
20630;BME280;17386;43.846;25.950;2023-07-22T00:01:17;100639.47;;;28.12;nan
20630;BME280;17386;43.846;25.950;2023-07-22T00:03:42;100637.78;;;28.11;nan
20630;BME280;17386;43.846;25.950;2023-07-22T00:06:11;100640.00;;;28.07;nan
20630;BME280;17386;43.846;25.950;2023-07-22T00:08:38;100649.56;;;28.03;nan
20630;BME280;17386;43.846;25.950;2023-07-22T00:11:04;100649.91;;;28.00;nan
20630;BME280;17386;43.846;25.950;2023-07-22T00:13:29;100662.84;;;27.98;nan
20630;BME280;17386;43.846;25.950;2023-07-22T00:15:56;100672.75;;;27.99;nan
20630;BME280;17386;43.846;25.950;2023-07-22T00:18:22;100686.94;;;28.03;nan
20630;BME280;17386;43.846;25.950;2023-07-22T00:20:49;100683.00;;;27.97;nan
20630;BME280;17386;43.846;25.950;2023-07-22T00:23:15;100700.06;;;27.99;nan
20630;BME280;17386;43.846;25.950;2023-07-22T00:25:41;100704.81;;;27.89;nan
20630;BME280;17386;43.846;25.950;2023-07-22T00:28:07;100804.31;;;27.95;nan
20630;BME280;17386;43.846;25.950;2023-07-22T00:30:32;101019.03;;;27.78;nan
20630;BME280;17386;43.846;25.950;2023-07-22T00:32:58;101026.06;;;27.63;nan
20630;BME280;17386;43.846;25.950;2023-07-22T00:35:23;100962.63;;;27.61;nan
20630;BME280;17386;43.846;25.950;2023-07-22T00:37:48;101036.69;;;27.66;nan
20630;BME280;17386;43.846;25.950;2023-07-22T00:40:15;101031.16;;;27.75;nan
20630;BME280;17386;43.846;25.950;2023-07-22T00:42:41;101015.16;;;27.80;nan
20630;BME280;17386;43.846;25.950;2023-07-22T00:45:07;101027.63;;;27.83;nan
20630;BME280;17386;43.846;25.950;2023-07-22T00:47:33;101019.59;;;27.82;nan
20630;BME280;17386;43.846;25.950;2023-07-22T00:50:05;101028.84;;;27.89;nan
20630;BME280;17386;43.846;25.950;2023-07-22T00:52:34;101026.66;;;27.92;nan
20630;BME280;17386;43.846;25.950;2023-07-22T00:55:01;101030.09;;;27.94;nan
20630;BME280;17386;43.846;25.950;2023-07-22T00:57:26;101020.25;;;28.01;nan
20630;BME280;17386;43.846;25.950;2023-07-22T00:59:51;100999.22;;;27.94;nan
20630;BME280;17386;43.846;25.950;2023-07-22T01:02:20;101001.22;;;27.92;nan
20630;BME280;17386;43.846;25.950;2023-07-22T01:04:46;101025.22;;;27.80;nan
20630;BME280;17386;43.846;25.950;2023-07-22T01:07:12;100992.13;;;27.65;nan
20630;BME280;17386;43.846;25.950;2023-07-22T01:09:41;100975.06;;;27.63;nan
20630;BME280;17386;43.846;25.950;2023-07-22T01:12:08;100985.75;;;27.57;nan
20630;BME280;17386;43.846;25.950;2023-07-22T01:14:39;100954.91;;;27.56;nan
20630;BME280;17386;43.846;25.950;2023-07-22T01:17:06;100952.28;;;27.46;nan
20630;BME280;17386;43.846;25.950;2023-07-22T01:19:33;100944.41;;;27.43;nan
20630;BME280;17386;43.846;25.950;2023-07-22T01:22:06;100912.00;;;27.40;nan
20630;BME280;17386;43.846;25.950;2023-07-22T01:24:38;100881.97;;;27.40;nan
20630;BME280;17386;43.846;25.950;2023-07-22T01:27:05;100897.97;;;27.35;nan
20630;BME280;17386;43.846;25.950;2023-07-22T01:29:33;100915.19;;;27.36;nan
20630;BME280;17386;43.846;25.950;2023-07-22T01:31:59;100935.06;;;27.28;nan
20630;BME280;17386;43.846;25.950;2023-07-22T01:34:24;100940.06;;;27.15;nan
20630;BME280;17386;43.846;25.950;2023-07-22T01:36:50;100954.41;;;27.17;nan
20630;BME280;17386;43.846;25.950;2023-07-22T01:39:16;100960.19;;;27.14;nan
20630;BME280;17386;43.846;25.950;2023-07-22T01:41:43;100951.00;;;27.15;nan
20630;BME280;17386;43.846;25.950;2023-07-22T01:44:09;100935.66;;;27.14;nan
20630;BME280;17386;43.846;25.950;2023-07-22T01:46:36;100951.59;;;27.09;nan
20630;BME280;17386;43.846;25.950;2023-07-22T01:49:04;100971.94;;;27.14;nan
20630;BME280;17386;43.846;25.950;2023-07-22T01:51:30;100946.38;;;27.15;nan
20630;BME280;17386;43.846;25.950;2023-07-22T01:53:57;100937.75;;;27.20;nan
20630;BME280;17386;43.846;25.950;2023-07-22T01:56:23;100944.06;;;27.20;nan
20630;BME280;17386;43.846;25.950;2023-07-22T01:58:48;100944.56;;;27.24;nan
20630;BME280;17386;43.846;25.950;2023-07-22T02:01:14;100937.13;;;27.26;nan
20630;BME280;17386;43.846;25.950;2023-07-22T02:03:41;100925.81;;;27.21;nan
20630;BME280;17386;43.846;25.950;2023-07-22T02:06:07;100939.78;;;27.18;nan
20630;BME280;17386;43.846;25.950;2023-07-22T02:08:32;100937.69;;;27.12;nan
20630;BME280;17386;43.846;25.950;2023-07-22T02:11:02;100915.16;;;27.10;nan
20630;BME280;17386;43.846;25.950;2023-07-22T02:13:30;100929.63;;;27.10;nan
20630;BME280;17386;43.846;25.950;2023-07-22T02:15:55;100933.09;;;27.12;nan
20630;BME280;17386;43.846;25.950;2023-07-22T02:18:20;100932.91;;;27.14;nan
20630;BME280;17386;43.846;25.950;2023-07-22T02:20:46;100931.38;;;27.11;nan
20630;BME280;17386;43.846;25.950;2023-07-22T02:23:11;100932.44;;;27.00;nan
20630;BME280;17386;43.846;25.950;2023-07-22T02:25:36;100931.00;;;26.96;nan
20630;BME280;17386;43.846;25.950;2023-07-22T02:28:02;100926.75;;;26.94;nan
20630;BME280;17386;43.846;25.950;2023-07-22T02:30:27;100922.22;;;26.85;nan
20630;BME280;17386;43.846;25.950;2023-07-22T02:32:53;100912.03;;;26.87;nan
20630;BME280;17386;43.846;25.950;2023-07-22T02:35:18;100908.13;;;26.89;nan
20630;BME280;17386;43.846;25.950;2023-07-22T02:37:44;100918.31;;;26.87;nan
20630;BME280;17386;43.846;25.950;2023-07-22T02:40:09;100920.97;;;26.79;nan
20630;BME280;17386;43.846;25.950;2023-07-22T02:42:39;100921.16;;;26.78;nan
20630;BME280;17386;43.846;25.950;2023-07-22T02:45:06;100914.13;;;26.75;nan
20630;BME280;17386;43.846;25.950;2023-07-22T02:47:35;100909.00;;;26.72;nan
20630;BME280;17386;43.846;25.950;2023-07-22T02:50:01;100911.16;;;26.68;nan
20630;BME280;17386;43.846;25.950;2023-07-22T02:52:26;100907.91;;;26.65;nan
20630;BME280;17386;43.846;25.950;2023-07-22T02:55:14;100906.56;;;26.69;nan
20630;BME280;17386;43.846;25.950;2023-07-22T02:57:40;100907.91;;;26.65;nan
20630;BME280;17386;43.846;25.950;2023-07-22T03:00:07;100919.94;;;26.62;nan
20630;BME280;17386;43.846;25.950;2023-07-22T03:02:36;100918.97;;;26.63;nan
20630;BME280;17386;43.846;25.950;2023-07-22T03:05:06;100923.56;;;26.63;nan
20630;BME280;17386;43.846;25.950;2023-07-22T03:07:38;100917.53;;;26.59;nan
20630;BME280;17386;43.846;25.950;2023-07-22T03:10:07;100918.00;;;26.55;nan
20630;BME280;17386;43.846;25.950;2023-07-22T03:12:33;100923.31;;;26.56;nan
20630;BME280;17386;43.846;25.950;2023-07-22T03:14:59;100924.53;;;26.44;nan
20630;BME280;17386;43.846;25.950;2023-07-22T03:17:24;100927.69;;;26.39;nan
20630;BME280;17386;43.846;25.950;2023-07-22T03:19:49;100909.94;;;26.35;nan
20630;BME280;17386;43.846;25.950;2023-07-22T03:22:16;100906.91;;;26.38;nan
20630;BME280;17386;43.846;25.950;2023-07-22T03:24:43;100922.25;;;26.39;nan
20630;BME280;17386;43.846;25.950;2023-07-22T03:27:08;100922.38;;;26.38;nan
20630;BME280;17386;43.846;25.950;2023-07-22T03:29:34;100931.84;;;26.43;nan
20630;BME280;17386;43.846;25.950;2023-07-22T03:31:59;100920.38;;;26.40;nan
20630;BME280;17386;43.846;25.950;2023-07-22T03:34:29;100937.28;;;26.43;nan
20630;BME280;17386;43.846;25.950;2023-07-22T03:36:55;100937.13;;;26.45;nan
20630;BME280;17386;43.846;25.950;2023-07-22T03:39:20;100925.38;;;26.44;nan
20630;BME280;17386;43.846;25.950;2023-07-22T03:41:46;100921.31;;;26.49;nan
20630;BME280;17386;43.846;25.950;2023-07-22T03:44:11;100924.63;;;26.52;nan
20630;BME280;17386;43.846;25.950;2023-07-22T03:46:37;100931.63;;;26.55;nan
20630;BME280;17386;43.846;25.950;2023-07-22T03:49:03;100940.09;;;26.52;nan
20630;BME280;17386;43.846;25.950;2023-07-22T03:51:29;100937.78;;;26.57;nan
20630;BME280;17386;43.846;25.950;2023-07-22T03:53:54;100926.91;;;26.57;nan
20630;BME280;17386;43.846;25.950;2023-07-22T03:56:20;100929.00;;;26.63;nan
20630;BME280;17386;43.846;25.950;2023-07-22T03:58:45;100926.66;;;26.68;nan
20630;BME280;17386;43.846;25.950;2023-07-22T04:01:13;100918.63;;;26.66;nan
20630;BME280;17386;43.846;25.950;2023-07-22T04:03:38;100920.34;;;26.67;nan
20630;BME280;17386;43.846;25.950;2023-07-22T04:06:04;100924.88;;;26.77;nan
20630;BME280;17386;43.846;25.950;2023-07-22T04:08:29;100913.34;;;26.83;nan
20630;BME280;17386;43.846;25.950;2023-07-22T04:10:56;100916.63;;;26.86;nan
20630;BME280;17386;43.846;25.950;2023-07-22T04:13:23;100914.97;;;26.93;nan
20630;BME280;17386;43.846;25.950;2023-07-22T04:15:50;100911.63;;;26.99;nan
20630;BME280;17386;43.846;25.950;2023-07-22T04:18:16;100906.00;;;27.01;nan
20630;BME280;17386;43.846;25.950;2023-07-22T04:20:42;100892.97;;;27.05;nan
20630;BME280;17386;43.846;25.950;2023-07-22T04:23:07;100887.53;;;27.05;nan
20630;BME280;17386;43.846;25.950;2023-07-22T04:25:33;100888.59;;;27.12;nan
20630;BME280;17386;43.846;25.950;2023-07-22T04:27:59;100885.03;;;27.11;nan
20630;BME280;17386;43.846;25.950;2023-07-22T04:30:24;100878.69;;;27.11;nan
20630;BME280;17386;43.846;25.950;2023-07-22T04:32:50;100871.22;;;27.13;nan
20630;BME280;17386;43.846;25.950;2023-07-22T04:35:16;100865.75;;;27.13;nan
20630;BME280;17386;43.846;25.950;2023-07-22T04:37:45;100878.91;;;27.17;nan
20630;BME280;17386;43.846;25.950;2023-07-22T04:40:11;100882.00;;;27.22;nan
20630;BME280;17386;43.846;25.950;2023-07-22T04:42:40;100885.13;;;27.27;nan
20630;BME280;17386;43.846;25.950;2023-07-22T04:45:06;100894.38;;;27.35;nan
20630;BME280;17386;43.846;25.950;2023-07-22T04:47:32;100898.50;;;27.39;nan
20630;BME280;17386;43.846;25.950;2023-07-22T04:49:57;100897.84;;;27.45;nan
20630;BME280;17386;43.846;25.950;2023-07-22T04:52:23;100899.81;;;27.52;nan
20630;BME280;17386;43.846;25.950;2023-07-22T04:54:48;100908.19;;;27.59;nan
20630;BME280;17386;43.846;25.950;2023-07-22T04:57:14;100902.41;;;27.62;nan
20630;BME280;17386;43.846;25.950;2023-07-22T04:59:42;100920.91;;;27.68;nan
20630;BME280;17386;43.846;25.950;2023-07-22T05:02:07;100929.34;;;27.65;nan
20630;BME280;17386;43.846;25.950;2023-07-22T05:04:33;100941.94;;;27.58;nan
20630;BME280;17386;43.846;25.950;2023-07-22T05:06:58;100941.28;;;27.64;nan
20630;BME280;17386;43.846;25.950;2023-07-22T05:09:24;100954.09;;;27.64;nan
20630;BME280;17386;43.846;25.950;2023-07-22T05:11:49;100950.34;;;27.65;nan
20630;BME280;17386;43.846;25.950;2023-07-22T05:14:14;100945.00;;;27.73;nan
20630;BME280;17386;43.846;25.950;2023-07-22T05:16:40;100941.88;;;27.68;nan
20630;BME280;17386;43.846;25.950;2023-07-22T05:19:05;100953.06;;;27.83;nan
20630;BME280;17386;43.846;25.950;2023-07-22T05:21:33;100960.13;;;27.93;nan
20630;BME280;17386;43.846;25.950;2023-07-22T05:23:58;100962.66;;;27.87;nan
20630;BME280;17386;43.846;25.950;2023-07-22T05:26:23;100964.69;;;27.93;nan
20630;BME280;17386;43.846;25.950;2023-07-22T05:28:49;100971.53;;;27.89;nan
20630;BME280;17386;43.846;25.950;2023-07-22T05:31:16;100973.81;;;28.01;nan
20630;BME280;17386;43.846;25.950;2023-07-22T05:33:41;100965.63;;;28.01;nan
20630;BME280;17386;43.846;25.950;2023-07-22T05:36:07;100968.66;;;27.98;nan
20630;BME280;17386;43.846;25.950;2023-07-22T05:38:32;100962.72;;;28.03;nan
20630;BME280;17386;43.846;25.950;2023-07-22T05:40:58;100973.69;;;28.11;nan
20630;BME280;17386;43.846;25.950;2023-07-22T05:43:24;100973.72;;;28.19;nan
20630;BME280;17386;43.846;25.950;2023-07-22T05:45:49;100980.22;;;28.18;nan
20630;BME280;17386;43.846;25.950;2023-07-22T05:48:15;100963.25;;;28.06;nan
20630;BME280;17386;43.846;25.950;2023-07-22T05:50:40;100975.06;;;28.07;nan
20630;BME280;17386;43.846;25.950;2023-07-22T05:53:06;100977.97;;;28.14;nan
20630;BME280;17386;43.846;25.950;2023-07-22T05:55:31;100988.22;;;28.20;nan
20630;BME280;17386;43.846;25.950;2023-07-22T05:57:57;100986.09;;;28.31;nan
20630;BME280;17386;43.846;25.950;2023-07-22T06:00:22;100987.34;;;28.37;nan
20630;BME280;17386;43.846;25.950;2023-07-22T06:02:48;100984.78;;;28.36;nan
20630;BME280;17386;43.846;25.950;2023-07-22T06:05:13;100993.31;;;28.41;nan
20630;BME280;17386;43.846;25.950;2023-07-22T06:07:39;100966.59;;;28.26;nan
20630;BME280;17386;43.846;25.950;2023-07-22T06:10:05;100988.22;;;28.46;nan
20630;BME280;17386;43.846;25.950;2023-07-22T06:12:31;100984.31;;;28.48;nan
20630;BME280;17386;43.846;25.950;2023-07-22T06:14:56;100996.97;;;28.57;nan
20630;BME280;17386;43.846;25.950;2023-07-22T06:17:25;101003.84;;;28.70;nan
20630;BME280;17386;43.846;25.950;2023-07-22T06:19:51;101006.63;;;28.78;nan
20630;BME280;17386;43.846;25.950;2023-07-22T06:22:16;100994.28;;;28.74;nan
20630;BME280;17386;43.846;25.950;2023-07-22T06:24:42;100993.81;;;28.86;nan
20630;BME280;17386;43.846;25.950;2023-07-22T06:27:07;100989.25;;;28.95;nan
20630;BME280;17386;43.846;25.950;2023-07-22T06:29:32;100987.03;;;29.07;nan
20630;BME280;17386;43.846;25.950;2023-07-22T06:31:58;100984.47;;;29.13;nan
20630;BME280;17386;43.846;25.950;2023-07-22T06:34:24;100988.59;;;29.26;nan
20630;BME280;17386;43.846;25.950;2023-07-22T06:36:49;100977.47;;;29.35;nan
20630;BME280;17386;43.846;25.950;2023-07-22T06:39:15;100962.78;;;29.28;nan
20630;BME280;17386;43.846;25.950;2023-07-22T06:41:40;100970.13;;;29.20;nan
20630;BME280;17386;43.846;25.950;2023-07-22T06:44:06;100968.91;;;29.30;nan
20630;BME280;17386;43.846;25.950;2023-07-22T06:46:31;100977.13;;;29.30;nan
20630;BME280;17386;43.846;25.950;2023-07-22T06:48:56;100988.41;;;29.43;nan
20630;BME280;17386;43.846;25.950;2023-07-22T06:51:22;100996.69;;;29.52;nan
20630;BME280;17386;43.846;25.950;2023-07-22T06:53:47;101020.59;;;29.58;nan
20630;BME280;17386;43.846;25.950;2023-07-22T06:56:12;101021.81;;;29.63;nan
20630;BME280;17386;43.846;25.950;2023-07-22T06:58:38;101018.91;;;29.73;nan
20630;BME280;17386;43.846;25.950;2023-07-22T07:01:03;101011.72;;;29.72;nan
20630;BME280;17386;43.846;25.950;2023-07-22T07:03:29;101024.91;;;29.60;nan
20630;BME280;17386;43.846;25.950;2023-07-22T07:05:57;101019.94;;;29.80;nan
20630;BME280;17386;43.846;25.950;2023-07-22T07:08:23;101027.44;;;29.94;nan
20630;BME280;17386;43.846;25.950;2023-07-22T07:10:51;101015.09;;;30.07;nan
20630;BME280;17386;43.846;25.950;2023-07-22T07:13:17;101017.50;;;30.10;nan
20630;BME280;17386;43.846;25.950;2023-07-22T07:15:46;101016.63;;;30.09;nan
20630;BME280;17386;43.846;25.950;2023-07-22T07:18:13;101017.16;;;29.96;nan
20630;BME280;17386;43.846;25.950;2023-07-22T07:20:38;101024.66;;;30.03;nan
20630;BME280;17386;43.846;25.950;2023-07-22T07:23:04;101023.44;;;30.05;nan
20630;BME280;17386;43.846;25.950;2023-07-22T07:25:29;101036.66;;;30.18;nan
20630;BME280;17386;43.846;25.950;2023-07-22T07:27:56;101035.59;;;30.19;nan
20630;BME280;17386;43.846;25.950;2023-07-22T07:30:21;101037.47;;;30.35;nan
20630;BME280;17386;43.846;25.950;2023-07-22T07:32:47;101033.63;;;30.52;nan
20630;BME280;17386;43.846;25.950;2023-07-22T07:35:12;101029.47;;;30.64;nan
20630;BME280;17386;43.846;25.950;2023-07-22T07:37:37;101008.69;;;30.78;nan
20630;BME280;17386;43.846;25.950;2023-07-22T07:40:03;101008.09;;;30.91;nan
20630;BME280;17386;43.846;25.950;2023-07-22T07:42:29;101001.19;;;30.95;nan
20630;BME280;17386;43.846;25.950;2023-07-22T07:44:54;100989.38;;;30.94;nan
20630;BME280;17386;43.846;25.950;2023-07-22T07:47:20;100985.38;;;31.05;nan
20630;BME280;17386;43.846;25.950;2023-07-22T07:49:45;100992.22;;;31.09;nan
20630;BME280;17386;43.846;25.950;2023-07-22T07:52:12;100993.34;;;31.15;nan
20630;BME280;17386;43.846;25.950;2023-07-22T07:54:39;100988.22;;;31.12;nan
20630;BME280;17386;43.846;25.950;2023-07-22T07:57:04;100981.25;;;31.32;nan
20630;BME280;17386;43.846;25.950;2023-07-22T07:59:31;100978.53;;;31.47;nan
20630;BME280;17386;43.846;25.950;2023-07-22T08:01:57;100969.25;;;31.48;nan
20630;BME280;17386;43.846;25.950;2023-07-22T08:04:22;100983.13;;;31.69;nan
20630;BME280;17386;43.846;25.950;2023-07-22T08:06:49;100981.47;;;31.83;nan
20630;BME280;17386;43.846;25.950;2023-07-22T08:09:15;100971.81;;;31.87;nan
20630;BME280;17386;43.846;25.950;2023-07-22T08:11:45;100980.72;;;32.04;nan
20630;BME280;17386;43.846;25.950;2023-07-22T08:14:10;100966.53;;;32.15;nan
20630;BME280;17386;43.846;25.950;2023-07-22T08:16:36;100971.16;;;32.29;nan
20630;BME280;17386;43.846;25.950;2023-07-22T08:19:01;100973.19;;;32.35;nan
20630;BME280;17386;43.846;25.950;2023-07-22T08:21:28;100961.50;;;32.48;nan
20630;BME280;17386;43.846;25.950;2023-07-22T08:23:53;100950.78;;;32.53;nan
20630;BME280;17386;43.846;25.950;2023-07-22T08:26:19;100956.41;;;32.66;nan
20630;BME280;17386;43.846;25.950;2023-07-22T08:28:47;100963.72;;;32.74;nan
20630;BME280;17386;43.846;25.950;2023-07-22T08:31:12;100946.66;;;32.64;nan
20630;BME280;17386;43.846;25.950;2023-07-22T08:33:38;100953.50;;;32.68;nan
20630;BME280;17386;43.846;25.950;2023-07-22T08:36:03;100951.25;;;32.78;nan
20630;BME280;17386;43.846;25.950;2023-07-22T08:38:29;100969.00;;;32.76;nan
20630;BME280;17386;43.846;25.950;2023-07-22T08:40:54;100980.09;;;32.82;nan
20630;BME280;17386;43.846;25.950;2023-07-22T08:43:23;100978.66;;;33.01;nan
20630;BME280;17386;43.846;25.950;2023-07-22T08:45:51;100963.91;;;33.09;nan
20630;BME280;17386;43.846;25.950;2023-07-22T08:48:18;100952.88;;;32.87;nan
20630;BME280;17386;43.846;25.950;2023-07-22T08:50:50;100961.47;;;32.99;nan
20630;BME280;17386;43.846;25.950;2023-07-22T08:53:17;100956.16;;;33.19;nan
20630;BME280;17386;43.846;25.950;2023-07-22T08:55:45;100962.91;;;32.80;nan
20630;BME280;17386;43.846;25.950;2023-07-22T08:58:11;100954.94;;;32.85;nan
20630;BME280;17386;43.846;25.950;2023-07-22T09:00:38;100960.22;;;33.02;nan
20630;BME280;17386;43.846;25.950;2023-07-22T09:03:04;100960.75;;;33.12;nan
20630;BME280;17386;43.846;25.950;2023-07-22T09:05:33;100951.06;;;33.16;nan
20630;BME280;17386;43.846;25.950;2023-07-22T09:08:01;100950.72;;;33.26;nan
20630;BME280;17386;43.846;25.950;2023-07-22T09:10:27;100946.00;;;33.41;nan
20630;BME280;17386;43.846;25.950;2023-07-22T09:12:54;100955.09;;;33.41;nan
20630;BME280;17386;43.846;25.950;2023-07-22T09:15:20;100947.16;;;33.53;nan
20630;BME280;17386;43.846;25.950;2023-07-22T09:17:46;100961.72;;;33.75;nan
20630;BME280;17386;43.846;25.950;2023-07-22T09:20:13;100970.28;;;33.87;nan
20630;BME280;17386;43.846;25.950;2023-07-22T09:22:50;100968.66;;;33.92;nan
20630;BME280;17386;43.846;25.950;2023-07-22T09:25:18;100966.44;;;33.81;nan
20630;BME280;17386;43.846;25.950;2023-07-22T09:27:46;100966.38;;;34.03;nan
20630;BME280;17386;43.846;25.950;2023-07-22T09:30:30;100960.94;;;34.16;nan
20630;BME280;17386;43.846;25.950;2023-07-22T09:32:57;100953.88;;;34.00;nan
20630;BME280;17386;43.846;25.950;2023-07-22T09:38:07;100952.50;;;34.24;nan
20630;BME280;17386;43.846;25.950;2023-07-22T09:40:33;100959.09;;;34.29;nan
20630;BME280;17386;43.846;25.950;2023-07-22T09:43:01;100944.63;;;34.14;nan
20630;BME280;17386;43.846;25.950;2023-07-22T09:45:29;100947.84;;;34.18;nan
20630;BME280;17386;43.846;25.950;2023-07-22T09:47:55;100944.47;;;34.29;nan
20630;BME280;17386;43.846;25.950;2023-07-22T09:50:22;100950.59;;;34.24;nan
20630;BME280;17386;43.846;25.950;2023-07-22T09:52:52;100948.38;;;34.41;nan
20630;BME280;17386;43.846;25.950;2023-07-22T09:55:23;100944.63;;;34.62;nan
20630;BME280;17386;43.846;25.950;2023-07-22T09:58:04;100945.72;;;34.74;nan
20630;BME280;17386;43.846;25.950;2023-07-22T10:00:37;100949.84;;;34.98;nan
20630;BME280;17386;43.846;25.950;2023-07-22T10:03:09;100942.19;;;35.14;nan
20630;BME280;17386;43.846;25.950;2023-07-22T10:05:38;100936.06;;;35.18;nan
20630;BME280;17386;43.846;25.950;2023-07-22T10:08:05;100929.25;;;35.27;nan
20630;BME280;17386;43.846;25.950;2023-07-22T10:10:53;100939.06;;;35.63;nan
20630;BME280;17386;43.846;25.950;2023-07-22T10:13:24;100936.91;;;35.72;nan
20630;BME280;17386;43.846;25.950;2023-07-22T10:15:49;100940.28;;;36.00;nan
20630;BME280;17386;43.846;25.950;2023-07-22T10:18:15;100938.34;;;36.65;nan
20630;BME280;17386;43.846;25.950;2023-07-22T10:20:43;100936.16;;;37.37;nan
20630;BME280;17386;43.846;25.950;2023-07-22T10:23:11;100934.69;;;37.85;nan
20630;BME280;17386;43.846;25.950;2023-07-22T10:25:39;100932.53;;;38.42;nan
20630;BME280;17386;43.846;25.950;2023-07-22T10:28:06;100929.31;;;38.26;nan
20630;BME280;17386;43.846;25.950;2023-07-22T10:30:33;100928.19;;;38.64;nan
20630;BME280;17386;43.846;25.950;2023-07-22T10:33:01;100920.50;;;38.11;nan
20630;BME280;17386;43.846;25.950;2023-07-22T10:38:15;100924.47;;;39.12;nan
20630;BME280;17386;43.846;25.950;2023-07-22T10:40:53;100917.44;;;39.63;nan
20630;BME280;17386;43.846;25.950;2023-07-22T10:43:33;100922.00;;;40.16;nan
20630;BME280;17386;43.846;25.950;2023-07-22T10:46:11;100917.16;;;40.80;nan
20630;BME280;17386;43.846;25.950;2023-07-22T10:48:39;100911.66;;;41.47;nan
20630;BME280;17386;43.846;25.950;2023-07-22T10:51:07;100911.66;;;41.47;nan
20630;BME280;17386;43.846;25.950;2023-07-22T10:53:33;100914.19;;;41.49;nan
20630;BME280;17386;43.846;25.950;2023-07-22T10:56:04;100906.66;;;41.66;nan
20630;BME280;17386;43.846;25.950;2023-07-22T10:58:31;100907.53;;;41.89;nan
20630;BME280;17386;43.846;25.950;2023-07-22T11:14:25;59141.97;;;-143.98;100.00
20630;BME280;17386;43.846;25.950;2023-07-22T11:16:51;59141.97;;;-143.98;100.00
20630;BME280;17386;43.846;25.950;2023-07-22T11:19:20;100905.84;;;41.32;nan
20630;BME280;17386;43.846;25.950;2023-07-22T11:21:48;100897.06;;;40.78;nan
20630;BME280;17386;43.846;25.950;2023-07-22T11:24:15;100902.44;;;41.13;nan
20630;BME280;17386;43.846;25.950;2023-07-22T11:26:42;100915.69;;;41.23;nan
20630;BME280;17386;43.846;25.950;2023-07-22T11:29:10;100905.59;;;40.31;nan
20630;BME280;17386;43.846;25.950;2023-07-22T11:31:43;100917.72;;;40.25;nan
20630;BME280;17386;43.846;25.950;2023-07-22T11:34:20;100911.72;;;39.23;nan
20630;BME280;17386;43.846;25.950;2023-07-22T11:36:48;100912.16;;;38.48;nan
20630;BME280;17386;43.846;25.950;2023-07-22T11:39:19;100917.97;;;38.28;nan
20630;BME280;17386;43.846;25.950;2023-07-22T11:41:48;100905.44;;;38.25;nan
20630;BME280;17386;43.846;25.950;2023-07-22T11:44:20;100898.00;;;38.01;nan
20630;BME280;17386;43.846;25.950;2023-07-22T11:46:55;100894.41;;;37.82;nan
20630;BME280;17386;43.846;25.950;2023-07-22T11:52:03;100893.16;;;37.53;nan
20630;BME280;17386;43.846;25.950;2023-07-22T11:54:30;100883.25;;;37.20;nan
20630;BME280;17386;43.846;25.950;2023-07-22T11:56:56;100895.75;;;36.98;nan
20630;BME280;17386;43.846;25.950;2023-07-22T11:59:44;100878.66;;;36.76;nan
20630;BME280;17386;43.846;25.950;2023-07-22T12:02:23;100871.19;;;36.45;nan
20630;BME280;17386;43.846;25.950;2023-07-22T12:05:01;100859.28;;;36.45;nan
20630;BME280;17386;43.846;25.950;2023-07-22T12:07:30;100866.28;;;36.47;nan
20630;BME280;17386;43.846;25.950;2023-07-22T12:09:58;100862.25;;;36.36;nan
20630;BME280;17386;43.846;25.950;2023-07-22T12:12:37;100868.28;;;36.27;nan
20630;BME280;17386;43.846;25.950;2023-07-22T12:17:59;100858.63;;;36.36;nan
20630;BME280;17386;43.846;25.950;2023-07-22T12:20:26;100866.09;;;36.42;nan
20630;BME280;17386;43.846;25.950;2023-07-22T12:22:52;100872.31;;;36.31;nan
20630;BME280;17386;43.846;25.950;2023-07-22T12:25:17;100857.22;;;36.27;nan
20630;BME280;17386;43.846;25.950;2023-07-22T12:27:44;100869.47;;;36.44;nan
20630;BME280;17386;43.846;25.950;2023-07-22T12:30:11;100872.00;;;36.52;nan
20630;BME280;17386;43.846;25.950;2023-07-22T12:32:37;100866.91;;;36.49;nan
20630;BME280;17386;43.846;25.950;2023-07-22T12:35:03;100873.00;;;36.58;nan
20630;BME280;17386;43.846;25.950;2023-07-22T12:37:29;100866.44;;;36.59;nan
20630;BME280;17386;43.846;25.950;2023-07-22T12:39:54;100863.63;;;36.65;nan
20630;BME280;17386;43.846;25.950;2023-07-22T12:42:19;100870.19;;;36.64;nan
20630;BME280;17386;43.846;25.950;2023-07-22T12:44:45;100857.41;;;36.70;nan
20630;BME280;17386;43.846;25.950;2023-07-22T12:47:11;100864.25;;;36.67;nan
20630;BME280;17386;43.846;25.950;2023-07-22T12:49:36;100851.25;;;36.68;nan
20630;BME280;17386;43.846;25.950;2023-07-22T12:52:02;100842.03;;;36.74;nan
20630;BME280;17386;43.846;25.950;2023-07-22T12:54:32;100853.78;;;36.69;nan
20630;BME280;17386;43.846;25.950;2023-07-22T12:56:57;100844.28;;;36.59;nan
20630;BME280;17386;43.846;25.950;2023-07-22T12:59:23;100848.00;;;36.71;nan
20630;BME280;17386;43.846;25.950;2023-07-22T13:01:48;100833.13;;;36.72;nan
20630;BME280;17386;43.846;25.950;2023-07-22T13:04:14;100832.44;;;36.77;nan
20630;BME280;17386;43.846;25.950;2023-07-22T13:06:39;100836.22;;;36.89;nan
20630;BME280;17386;43.846;25.950;2023-07-22T13:09:05;100837.53;;;36.86;nan
20630;BME280;17386;43.846;25.950;2023-07-22T13:11:30;100841.31;;;36.85;nan
20630;BME280;17386;43.846;25.950;2023-07-22T13:13:55;100841.19;;;36.74;nan
20630;BME280;17386;43.846;25.950;2023-07-22T13:16:21;100850.06;;;36.82;nan
20630;BME280;17386;43.846;25.950;2023-07-22T13:18:46;100827.06;;;36.88;nan
20630;BME280;17386;43.846;25.950;2023-07-22T13:21:11;100835.63;;;37.05;nan
20630;BME280;17386;43.846;25.950;2023-07-22T13:23:37;100834.91;;;36.85;nan